createdAt,value
2023-05-21T00:00:14.525Z,3.78
2023-05-21T00:02:43.048Z,4.15
2023-05-21T00:05:14.799Z,3.53
2023-05-21T00:07:43.062Z,3.40
2023-05-21T00:10:11.695Z,3.30
2023-05-21T00:12:41.821Z,3.88
2023-05-21T00:15:11.004Z,3.20
2023-05-21T00:17:40.085Z,4.15
2023-05-21T00:20:09.970Z,4.03
2023-05-21T00:22:37.771Z,3.47
2023-05-21T00:25:06.478Z,3.55
2023-05-21T00:27:34.272Z,3.45
2023-05-21T00:30:04.275Z,4.10
2023-05-21T00:32:32.123Z,3.33
2023-05-21T00:34:59.988Z,3.58
2023-05-21T00:37:29.842Z,3.75
2023-05-21T00:39:58.463Z,3.70
2023-05-21T00:42:27.399Z,3.80
2023-05-21T00:44:55.568Z,3.35
2023-05-21T00:47:26.961Z,3.47
2023-05-21T00:49:55.728Z,3.60
2023-05-21T00:52:26.793Z,4.15
2023-05-21T00:54:55.055Z,3.10
2023-05-21T00:57:27.133Z,3.70
2023-05-21T00:59:55.277Z,3.03
2023-05-21T01:02:26.168Z,3.80
2023-05-21T01:04:55.813Z,3.42
2023-05-21T01:07:23.626Z,3.65
2023-05-21T01:09:51.445Z,3.28
2023-05-21T01:12:20.626Z,3.63
2023-05-21T01:14:49.253Z,3.70
2023-05-21T01:17:17.752Z,3.97
2023-05-21T01:19:48.608Z,3.80
2023-05-21T01:22:18.815Z,3.50
2023-05-21T01:24:51.352Z,3.70
2023-05-21T01:27:20.012Z,3.78
2023-05-21T01:29:47.835Z,3.72
2023-05-21T01:32:22.186Z,3.95
2023-05-21T01:35:00.871Z,3.40
2023-05-21T01:37:35.392Z,3.72
2023-05-21T01:40:11.974Z,3.75
2023-05-21T01:42:44.626Z,3.25
2023-05-21T01:45:15.348Z,4.30
2023-05-21T01:47:46.279Z,4.32
2023-05-21T01:50:15.446Z,4.07
2023-05-21T01:52:50.988Z,3.85
2023-05-21T01:55:24.550Z,4.13
2023-05-21T01:57:53.956Z,3.88
2023-05-21T02:00:22.829Z,4.10
2023-05-21T02:02:50.862Z,4.10
2023-05-21T02:05:19.006Z,3.75
2023-05-21T02:07:47.330Z,3.50
2023-05-21T02:10:15.975Z,3.80
2023-05-21T02:12:45.307Z,4.57
2023-05-21T02:15:14.336Z,4.80
2023-05-21T02:17:42.580Z,3.67
2023-05-21T02:20:13.926Z,4.30
2023-05-21T02:22:42.923Z,4.30
2023-05-21T02:25:11.939Z,4.82
2023-05-21T02:27:40.706Z,4.20
2023-05-21T02:30:12.446Z,4.22
2023-05-21T02:32:42.730Z,4.55
2023-05-21T02:35:11.923Z,4.63
2023-05-21T02:37:41.292Z,4.38
2023-05-21T02:40:10.779Z,4.90
2023-05-21T02:42:40.457Z,4.50
2023-05-21T02:45:12.966Z,4.72
2023-05-21T02:47:43.347Z,4.83
2023-05-21T02:50:11.350Z,4.30
2023-05-21T02:52:45.633Z,5.35
2023-05-21T02:55:13.568Z,4.70
2023-05-21T02:57:41.506Z,5.07
2023-05-21T03:00:11.489Z,5.00
2023-05-21T03:02:42.256Z,5.22
2023-05-21T03:05:11.222Z,5.88
2023-05-21T03:07:39.011Z,5.47
2023-05-21T03:10:08.224Z,5.40
2023-05-21T03:12:36.498Z,5.30
2023-05-21T03:15:04.803Z,5.97
2023-05-21T03:17:32.751Z,5.47
2023-05-21T03:20:02.096Z,5.57
2023-05-21T03:22:30.130Z,5.53
2023-05-21T03:24:58.377Z,5.03
2023-05-21T03:27:27.042Z,6.40
2023-05-21T03:29:56.137Z,5.57
2023-05-21T03:32:24.644Z,5.70
2023-05-21T03:34:53.762Z,5.88
2023-05-21T03:37:23.017Z,4.82
2023-05-21T03:39:50.866Z,4.65
2023-05-21T03:42:19.007Z,4.50
2023-05-21T03:44:51.286Z,5.50
2023-05-21T03:47:48.904Z,5.32
2023-05-21T03:50:17.585Z,4.93
2023-05-21T03:52:46.825Z,4.53
2023-05-21T03:55:14.579Z,5.00
2023-05-21T03:57:42.588Z,5.07
2023-05-21T04:00:11.152Z,5.55
2023-05-21T04:02:45.090Z,5.55
2023-05-21T04:05:16.646Z,5.10
2023-05-21T04:07:46.535Z,5.10
2023-05-21T04:10:15.538Z,4.63
2023-05-21T04:12:43.485Z,4.90
2023-05-21T04:15:12.740Z,4.75
2023-05-21T04:17:40.585Z,4.78
2023-05-21T04:20:09.662Z,4.22
2023-05-21T04:22:38.185Z,3.97
2023-05-21T04:25:08.295Z,4.68
2023-05-21T04:27:38.911Z,5.00
2023-05-21T04:30:08.580Z,4.45
2023-05-21T04:32:38.629Z,4.10
2023-05-21T04:35:10.106Z,3.83
2023-05-21T04:37:42.049Z,4.10
2023-05-21T04:40:12.359Z,3.92
2023-05-21T04:42:41.282Z,4.13
2023-05-21T04:45:11.332Z,3.85
2023-05-21T04:47:41.687Z,3.63
2023-05-21T04:50:11.966Z,3.25
2023-05-21T04:52:40.502Z,3.50
2023-05-21T04:55:09.208Z,4.07
2023-05-21T04:57:38.598Z,4.07
2023-05-21T05:00:08.728Z,3.50
2023-05-21T05:02:41.760Z,3.92
2023-05-21T05:05:10.272Z,3.65
2023-05-21T05:07:38.609Z,4.70
2023-05-21T05:10:07.582Z,3.53
2023-05-21T05:12:35.441Z,3.55
2023-05-21T05:15:05.890Z,3.70
2023-05-21T05:17:35.585Z,3.78
2023-05-21T05:20:04.223Z,3.65
2023-05-21T05:22:32.099Z,4.10
2023-05-21T05:24:59.914Z,3.80
2023-05-21T05:27:27.790Z,3.92
2023-05-21T05:29:56.739Z,3.80
2023-05-21T05:32:26.139Z,3.40
2023-05-21T05:34:54.073Z,4.30
2023-05-21T05:37:21.914Z,3.42
2023-05-21T05:39:50.311Z,3.72
2023-05-21T05:42:18.130Z,4.00
2023-05-21T05:44:46.644Z,3.90
2023-05-21T05:47:14.529Z,3.75
2023-05-21T05:49:43.721Z,4.22
2023-05-21T05:52:11.991Z,3.53
2023-05-21T05:54:39.929Z,3.70
2023-05-21T05:57:07.766Z,3.50
2023-05-21T05:59:36.763Z,3.50
2023-05-21T06:02:06.265Z,4.32
2023-05-21T06:04:34.353Z,3.67
2023-05-21T06:07:03.577Z,3.72
2023-05-21T06:09:31.423Z,3.45
2023-05-21T06:11:59.282Z,3.47
2023-05-21T06:14:27.172Z,3.78
2023-05-21T06:16:55.547Z,3.58
2023-05-21T06:19:23.539Z,3.55
2023-05-21T06:21:51.557Z,3.38
2023-05-21T06:24:22.205Z,3.97
2023-05-21T06:26:50.025Z,3.95
2023-05-21T06:29:18.178Z,3.97
2023-05-21T06:31:47.727Z,3.78
2023-05-21T06:34:15.740Z,3.85
2023-05-21T06:36:43.567Z,4.13
2023-05-21T06:39:11.639Z,3.85
2023-05-21T06:41:41.072Z,4.25
2023-05-21T06:44:25.354Z,4.43
2023-05-21T06:47:15.053Z,4.97
2023-05-21T06:49:42.939Z,4.25
2023-05-21T06:52:11.267Z,4.47
2023-05-21T06:54:39.652Z,3.97
2023-05-21T06:57:09.772Z,3.70
2023-05-21T06:59:37.597Z,3.63
2023-05-21T07:02:05.796Z,3.78
2023-05-21T07:04:35.277Z,4.30
2023-05-21T07:07:04.635Z,3.38
2023-05-21T07:09:32.912Z,3.97
2023-05-21T07:12:01.277Z,5.00
2023-05-21T07:14:30.492Z,3.90
2023-05-21T07:16:58.954Z,4.10
2023-05-21T07:19:26.948Z,4.43
2023-05-21T07:21:54.891Z,3.85
2023-05-21T07:24:23.565Z,4.03
2023-05-21T07:26:51.425Z,3.78
2023-05-21T07:29:19.283Z,3.58
2023-05-21T07:31:48.866Z,3.47
2023-05-21T07:34:17.295Z,3.30
2023-05-21T07:36:46.428Z,3.17
2023-05-21T07:39:14.335Z,3.85
2023-05-21T07:41:43.516Z,4.05
2023-05-21T07:44:11.585Z,3.72
2023-05-21T07:46:42.778Z,3.40
2023-05-21T07:49:16.759Z,3.88
2023-05-21T07:51:45.966Z,3.70
2023-05-21T07:54:13.907Z,3.30
2023-05-21T07:56:41.964Z,3.50
2023-05-21T07:59:18.164Z,4.28
2023-05-21T08:01:46.913Z,4.18
2023-05-21T08:04:16.251Z,3.63
2023-05-21T08:06:44.419Z,3.83
2023-05-21T08:09:12.299Z,4.13
2023-05-21T08:11:40.144Z,3.53
2023-05-21T08:14:08.403Z,3.80
2023-05-21T08:16:36.829Z,3.53
2023-05-21T08:19:05.191Z,3.67
2023-05-21T08:21:35.024Z,4.22
2023-05-21T08:24:03.357Z,3.95
2023-05-21T08:26:31.285Z,4.40
2023-05-21T08:28:59.233Z,3.30
2023-05-21T08:31:27.349Z,3.92
2023-05-21T08:33:56.590Z,4.40
2023-05-21T08:36:37.489Z,3.90
2023-05-21T08:39:12.935Z,3.83
2023-05-21T08:41:49.638Z,3.92
2023-05-21T08:44:22.458Z,4.57
2023-05-21T08:46:51.788Z,4.07
2023-05-21T08:49:25.742Z,3.67
2023-05-21T08:52:00.609Z,3.88
2023-05-21T08:54:28.911Z,4.15
2023-05-21T08:56:59.181Z,3.78
2023-05-21T08:59:28.179Z,4.47
2023-05-21T09:01:57.767Z,4.60
2023-05-21T09:04:33.863Z,3.70
2023-05-21T09:07:03.836Z,3.95
2023-05-21T09:09:56.059Z,4.00
2023-05-21T09:12:24.597Z,4.00
2023-05-21T09:14:53.128Z,4.38
2023-05-21T09:17:26.529Z,3.90
2023-05-21T09:20:12.431Z,4.43
2023-05-21T09:22:46.450Z,3.95
2023-05-21T09:25:16.390Z,3.85
2023-05-21T09:27:44.485Z,3.55
2023-05-21T09:30:13.752Z,3.78
2023-05-21T09:32:43.191Z,4.15
2023-05-21T09:35:12.556Z,3.85
2023-05-21T09:37:41.054Z,4.10
2023-05-21T09:40:17.232Z,3.90
2023-05-21T09:42:48.309Z,3.90
2023-05-21T09:45:19.700Z,4.25
2023-05-21T09:47:49.014Z,3.70
2023-05-21T09:50:21.394Z,3.38
2023-05-21T09:52:50.422Z,4.30
2023-05-21T09:55:23.016Z,3.92
2023-05-21T09:57:51.465Z,3.90
2023-05-21T10:00:21.221Z,3.72
2023-05-21T10:02:50.768Z,4.00
2023-05-21T10:05:18.863Z,3.85
2023-05-21T10:07:51.465Z,3.75
2023-05-21T10:10:22.773Z,4.10
2023-05-21T10:12:56.059Z,3.72
2023-05-21T10:15:25.868Z,3.75
2023-05-21T10:17:56.736Z,3.85
2023-05-21T10:20:25.288Z,3.50
2023-05-21T10:22:54.017Z,3.53
2023-05-21T10:25:24.685Z,3.58
2023-05-21T10:27:53.063Z,4.10
2023-05-21T10:30:23.162Z,3.78
2023-05-21T10:32:51.491Z,3.83
2023-05-21T10:35:20.147Z,3.20
2023-05-21T10:37:48.034Z,3.17
2023-05-21T10:40:16.259Z,3.78
2023-05-21T10:43:07.415Z,3.00
2023-05-21T10:45:48.721Z,3.92
2023-05-21T10:48:31.716Z,3.78
2023-05-21T10:51:20.092Z,3.80
2023-05-21T10:54:18.782Z,3.72
2023-05-21T10:56:54.091Z,4.22
2023-05-21T10:59:36.763Z,3.78
2023-05-21T11:02:07.031Z,4.95
2023-05-21T11:04:39.956Z,4.40
2023-05-21T11:07:08.305Z,4.35
2023-05-21T11:09:36.448Z,4.40
2023-05-21T11:12:05.065Z,5.10
2023-05-21T11:14:39.711Z,4.20
2023-05-21T11:17:13.665Z,4.00
2023-05-21T11:19:43.358Z,4.45
2023-05-21T11:22:22.432Z,4.63
2023-05-21T11:24:51.722Z,5.03
2023-05-21T11:27:35.245Z,5.13
2023-05-21T11:30:08.014Z,5.00
2023-05-21T11:32:39.849Z,4.60
2023-05-21T11:35:08.944Z,5.30
2023-05-21T11:37:40.678Z,4.63
2023-05-21T11:40:32.520Z,5.18
2023-05-21T11:43:00.439Z,4.97
2023-05-21T11:45:32.377Z,4.90
2023-05-21T11:48:01.133Z,5.22
2023-05-21T11:50:30.873Z,5.60
2023-05-21T11:53:00.909Z,5.32
2023-05-21T11:55:28.957Z,5.93
2023-05-21T11:57:56.744Z,5.90
2023-05-21T12:00:24.699Z,5.10
2023-05-21T12:02:56.247Z,5.53
2023-05-21T12:05:25.052Z,6.07
2023-05-21T12:07:54.644Z,5.90
2023-05-21T12:10:24.222Z,6.50
2023-05-21T12:12:56.317Z,6.85
2023-05-21T12:15:27.188Z,6.90
2023-05-21T12:17:57.867Z,7.65
2023-05-21T12:20:28.190Z,7.82
2023-05-21T12:22:58.868Z,7.55
2023-05-21T12:25:27.432Z,8.00
2023-05-21T12:27:58.316Z,7.57
2023-05-21T12:30:26.861Z,7.65
2023-05-21T12:32:54.805Z,8.88
2023-05-21T12:35:25.113Z,8.15
2023-05-21T12:37:53.431Z,7.35
2023-05-21T12:40:22.481Z,7.10
2023-05-21T12:42:51.739Z,7.80
2023-05-21T12:45:22.188Z,8.35
2023-05-21T12:47:56.014Z,7.95
2023-05-21T12:50:26.226Z,7.97
2023-05-21T12:52:58.941Z,7.90
2023-05-21T12:55:27.161Z,8.05
2023-05-21T12:58:07.835Z,8.63
2023-05-21T13:00:36.335Z,8.38
2023-05-21T13:03:06.386Z,7.93
2023-05-21T13:05:36.561Z,9.13
2023-05-21T13:08:04.688Z,8.63
2023-05-21T13:10:32.636Z,8.27
2023-05-21T13:13:00.482Z,8.00
2023-05-21T13:15:28.552Z,7.90
2023-05-21T13:17:57.196Z,8.27
2023-05-21T13:20:27.488Z,8.00
2023-05-21T13:22:56.990Z,8.23
2023-05-21T13:25:28.835Z,8.57
2023-05-21T13:27:57.554Z,9.20
2023-05-21T13:30:25.583Z,9.30
2023-05-21T13:32:53.547Z,8.60
2023-05-21T13:35:21.764Z,9.60
2023-05-21T13:37:50.289Z,9.65
2023-05-21T13:40:19.532Z,9.85
2023-05-21T13:42:49.404Z,8.25
2023-05-21T13:45:19.536Z,9.25
2023-05-21T13:47:48.410Z,10.50
2023-05-21T13:50:17.590Z,8.75
2023-05-21T13:52:45.958Z,8.98
2023-05-21T13:55:15.858Z,10.02
2023-05-21T13:57:46.044Z,8.60
2023-05-21T14:00:16.794Z,10.27
2023-05-21T14:02:45.495Z,9.85
2023-05-21T14:05:15.387Z,9.05
2023-05-21T14:07:43.264Z,9.52
2023-05-21T14:10:11.762Z,9.07
2023-05-21T14:12:40.613Z,10.43
2023-05-21T14:15:10.753Z,9.55
2023-05-21T14:17:40.501Z,9.90
2023-05-21T14:20:10.052Z,10.48
2023-05-21T14:22:38.645Z,9.73
2023-05-21T14:25:07.560Z,9.68
2023-05-21T14:27:37.969Z,8.77
2023-05-21T14:30:06.795Z,9.77
2023-05-21T14:32:36.047Z,9.35
2023-05-21T14:35:05.065Z,9.20
2023-05-21T14:37:33.003Z,10.15
2023-05-21T14:40:01.017Z,10.30
2023-05-21T14:42:29.121Z,9.93
2023-05-21T14:47:26.538Z,11.07
2023-05-21T14:49:55.678Z,11.88
2023-05-21T14:52:23.522Z,11.13
2023-05-21T14:54:51.312Z,11.57
2023-05-21T14:57:19.099Z,10.55
2023-05-21T14:59:47.155Z,10.68
2023-05-21T15:02:15.146Z,11.75
2023-05-21T15:04:44.002Z,11.70
2023-05-21T15:07:13.140Z,11.50
2023-05-21T15:09:40.882Z,11.38
2023-05-21T15:12:08.849Z,11.20
2023-05-21T15:14:36.722Z,14.20
2023-05-21T15:17:05.084Z,13.27
2023-05-21T15:19:33.273Z,13.65
2023-05-21T15:22:01.265Z,10.90
2023-05-21T15:24:30.447Z,13.57
2023-05-21T15:26:58.328Z,12.32
2023-05-21T15:29:26.158Z,15.23
2023-05-21T15:31:53.961Z,13.32
2023-05-21T15:34:21.858Z,12.38
2023-05-21T15:36:49.856Z,12.95
2023-05-21T15:39:17.646Z,13.50
2023-05-21T15:41:46.748Z,12.07
2023-05-21T15:44:14.629Z,13.23
2023-05-21T15:46:42.617Z,15.35
2023-05-21T15:49:10.614Z,12.05
2023-05-21T15:51:40.293Z,11.82
2023-05-21T15:54:08.400Z,12.77
2023-05-21T15:56:36.439Z,11.82
2023-05-21T15:59:06.134Z,12.52
2023-05-21T16:01:34.486Z,12.38
2023-05-21T16:04:02.712Z,14.48
2023-05-21T16:06:31.464Z,16.25
2023-05-21T16:08:59.393Z,13.07
2023-05-21T16:11:27.479Z,14.80
2023-05-21T16:13:55.744Z,14.15
2023-05-21T16:16:25.085Z,13.60
2023-05-21T16:18:53.002Z,15.15
2023-05-21T16:21:21.076Z,14.32
2023-05-21T16:23:49.191Z,15.40
2023-05-21T16:26:17.182Z,11.98
2023-05-21T16:28:45.023Z,13.45
2023-05-21T16:31:13.873Z,14.45
2023-05-21T16:33:43.106Z,11.70
2023-05-21T16:36:11.169Z,11.60
2023-05-21T16:38:39.247Z,11.50
2023-05-21T16:41:07.159Z,14.15
2023-05-21T16:43:35.141Z,12.88
2023-05-21T16:46:03.277Z,13.20
2023-05-21T16:48:32.310Z,11.73
2023-05-21T16:51:02.360Z,13.18
2023-05-21T16:53:30.481Z,12.18
2023-05-21T16:55:58.347Z,13.30
2023-05-21T16:58:26.215Z,13.93
2023-05-21T17:00:54.216Z,11.27
2023-05-21T17:03:22.125Z,13.45
2023-05-21T17:05:50.359Z,13.60
2023-05-21T17:08:19.639Z,13.40
2023-05-21T17:10:47.745Z,12.38
2023-05-21T17:13:22.301Z,14.25
2023-05-21T17:15:51.596Z,13.63
2023-05-21T17:18:19.608Z,15.60
2023-05-21T17:20:47.461Z,12.65
2023-05-21T17:23:15.637Z,14.05
2023-05-21T17:25:45.089Z,13.60
2023-05-21T17:28:12.878Z,12.82
2023-05-21T17:30:41.014Z,13.88
2023-05-21T17:33:10.367Z,14.90
2023-05-21T17:35:39.272Z,12.07
2023-05-21T17:38:07.533Z,13.90
2023-05-21T17:40:35.657Z,12.35
2023-05-21T17:43:07.307Z,15.23
2023-05-21T17:45:35.629Z,15.75
2023-05-21T17:48:04.020Z,13.05
2023-05-21T17:50:32.157Z,12.50
2023-05-21T17:53:00.411Z,15.45
2023-05-21T17:55:28.326Z,12.82
2023-05-21T17:57:56.374Z,14.38
2023-05-21T18:00:25.845Z,15.52
2023-05-21T18:02:53.780Z,14.35
2023-05-21T18:05:22.761Z,14.27
2023-05-21T18:07:50.926Z,16.55
2023-05-21T18:10:19.454Z,15.05
2023-05-21T18:12:47.320Z,15.60
2023-05-21T18:15:16.027Z,15.95
2023-05-21T18:17:45.550Z,15.45
2023-05-21T18:20:14.875Z,15.38
2023-05-21T18:22:42.876Z,15.45
2023-05-21T18:25:11.428Z,13.55
2023-05-21T18:27:39.737Z,13.00
2023-05-21T18:30:08.937Z,13.18
2023-05-21T18:32:39.200Z,14.43
2023-05-21T18:35:11.967Z,14.13
2023-05-21T18:37:44.326Z,14.73
2023-05-21T18:40:13.298Z,13.55
2023-05-21T18:42:41.331Z,13.73
2023-05-21T18:45:10.300Z,15.30
2023-05-21T18:47:40.196Z,14.10
2023-05-21T18:50:12.492Z,15.38
2023-05-21T18:52:40.402Z,14.55
2023-05-21T18:55:09.153Z,15.77
2023-05-21T18:57:38.172Z,14.15
2023-05-21T19:00:09.552Z,16.33
2023-05-21T19:02:37.739Z,14.57
2023-05-21T19:05:06.628Z,14.07
2023-05-21T19:07:36.218Z,15.27
2023-05-21T19:10:04.237Z,14.05
2023-05-21T19:12:32.472Z,14.25
2023-05-21T19:15:00.350Z,14.55
2023-05-21T19:17:28.394Z,14.95
2023-05-21T19:19:56.720Z,13.52
2023-05-21T19:22:24.966Z,15.82
2023-05-21T19:24:54.568Z,15.15
2023-05-21T19:27:22.584Z,13.45
2023-05-21T19:29:50.553Z,15.13
2023-05-21T19:32:18.729Z,14.02
2023-05-21T19:34:46.621Z,15.27
2023-05-21T19:37:16.742Z,14.23
2023-05-21T19:39:49.516Z,13.13
2023-05-21T19:42:21.552Z,14.93
2023-05-21T19:44:49.468Z,14.63
2023-05-21T19:47:17.464Z,14.52
2023-05-21T19:49:45.655Z,15.45
2023-05-21T19:52:13.513Z,15.55
2023-05-21T19:54:41.434Z,14.43
2023-05-21T19:57:12.132Z,13.13
2023-05-21T19:59:41.735Z,14.45
2023-05-21T20:02:13.286Z,15.45
2023-05-21T20:04:41.544Z,13.57
2023-05-21T20:07:11.169Z,15.40
2023-05-21T20:09:40.221Z,16.48
2023-05-21T20:12:09.120Z,12.52
2023-05-21T20:14:37.037Z,14.35
2023-05-21T20:17:07.201Z,15.32
2023-05-21T20:19:36.255Z,15.07
2023-05-21T20:22:04.508Z,14.35
2023-05-21T20:24:32.423Z,14.75
2023-05-21T20:27:01.630Z,14.10
2023-05-21T20:29:29.962Z,16.17
2023-05-21T20:31:58.046Z,16.38
2023-05-21T20:34:29.566Z,15.48
2023-05-21T20:36:58.321Z,14.60
2023-05-21T20:39:27.838Z,14.75
2023-05-21T20:41:56.484Z,14.57
2023-05-21T20:44:25.957Z,13.55
2023-05-21T20:46:57.619Z,16.35
2023-05-21T20:49:28.184Z,15.57
2023-05-21T20:51:56.514Z,15.85
2023-05-21T20:54:24.521Z,15.57
2023-05-21T20:56:55.549Z,15.57
2023-05-21T20:59:23.408Z,13.82
2023-05-21T21:01:52.666Z,16.52
2023-05-21T21:04:20.818Z,14.05
2023-05-21T21:06:50.326Z,16.27
2023-05-21T21:09:18.270Z,14.50
2023-05-21T21:11:46.263Z,15.65
2023-05-21T21:14:14.882Z,16.88
2023-05-21T21:16:42.870Z,14.98
2023-05-21T21:19:10.826Z,14.90
2023-05-21T21:21:38.978Z,17.35
2023-05-21T21:24:09.063Z,16.35
2023-05-21T21:26:36.947Z,15.85
2023-05-21T21:29:04.946Z,14.57
2023-05-21T21:31:32.845Z,16.13
2023-05-21T21:34:01.176Z,17.63
2023-05-21T21:36:29.712Z,17.55
2023-05-21T21:38:58.068Z,16.52
2023-05-21T21:41:27.322Z,15.30
2023-05-21T21:43:55.447Z,18.13
2023-05-21T21:46:23.369Z,16.42
2023-05-21T21:48:51.192Z,17.50
2023-05-21T21:51:19.933Z,16.50
2023-05-21T21:53:49.103Z,17.15
2023-05-21T21:56:19.960Z,16.83
2023-05-21T21:58:49.446Z,18.38
2023-05-21T22:01:17.430Z,17.60
2023-05-21T22:03:45.556Z,16.25
2023-05-21T22:06:13.487Z,19.02
2023-05-21T22:08:41.541Z,17.98
2023-05-21T22:11:09.960Z,16.70
2023-05-21T22:13:38.672Z,18.48
2023-05-21T22:16:08.447Z,17.95
2023-05-21T22:18:41.537Z,16.02
2023-05-21T22:23:39.700Z,18.60
2023-05-21T22:26:08.720Z,17.75
2023-05-21T22:28:36.790Z,16.45
2023-05-21T22:31:04.999Z,17.23
2023-05-21T22:33:34.322Z,17.27
2023-05-21T22:36:02.439Z,17.50
2023-05-21T22:38:30.510Z,16.20
2023-05-21T22:40:58.434Z,16.30
2023-05-21T22:43:26.793Z,17.48
2023-05-21T22:45:54.824Z,17.80
2023-05-21T22:48:23.040Z,17.58
2023-05-21T22:50:53.488Z,15.30
2023-05-21T22:53:21.764Z,14.35
2023-05-21T22:55:49.846Z,14.93
2023-05-21T22:58:18.267Z,17.33
2023-05-21T23:00:47.595Z,14.82
2023-05-21T23:03:17.840Z,16.23
2023-05-21T23:05:46.167Z,16.23
2023-05-21T23:08:15.757Z,15.20
2023-05-21T23:10:43.750Z,15.80
2023-05-21T23:13:12.944Z,15.93
2023-05-21T23:15:43.660Z,15.57
2023-05-21T23:18:11.838Z,15.20
2023-05-21T23:20:42.234Z,15.18
2023-05-21T23:23:10.988Z,15.20
2023-05-21T23:25:40.291Z,14.48
2023-05-21T23:28:08.413Z,14.93
2023-05-21T23:30:36.611Z,15.07
2023-05-21T23:33:04.865Z,14.18
2023-05-21T23:35:32.891Z,14.43
2023-05-21T23:38:00.986Z,15.85
2023-05-21T23:40:29.085Z,16.05
2023-05-21T23:42:59.025Z,15.27
2023-05-21T23:45:27.033Z,16.30
2023-05-21T23:47:55.172Z,16.35
2023-05-21T23:50:25.335Z,15.52
2023-05-21T23:52:53.368Z,15.23
2023-05-21T23:55:21.538Z,16.85
2023-05-21T23:57:49.583Z,15.48
